Baraboo, WI

6:54 PM CST on February 21, 2017 (GMT -0600)
Guppy St | | Change Station
Active Advisory: Hydrologic Statement

Elev 873 ft 43.46 °N, 89.74 °W | Updated 28 seconds ago

Partly Cloudy
Partly Cloudy
45.5 °F
Feels Like 46 °F
N
0.0
Wind Variable Wind from East

Today
High -- | Low -- °F
--% Chance of Precip.
Yesterday
High -- | Low -- °F
Precip. -- in
Pressure 29.84 in
Visibility 10.0 miles
Clouds Clear
Windchill 46 °F
Dew Point 40 °F
Humidity 81%
Rainfall 0.00 in
Snow Depth Not available.
6:47 AM 5:37 PM
Waning Crescent, 21% visible
METAR KDLL 220035Z AUTO 19006KT 10SM CLR 11/01 A2984 RMK AO2 T01100006
Pressure 29.84 in
Visibility 10.0 miles
Clouds Clear
Windchill 46 °F
Dew Point 40 °F
Humidity 81%
Rainfall 0.00 in
Snow Depth Not available.
6:47 AM 5:37 PM
Waning Crescent, 21% visible
METAR KDLL 220035Z AUTO 19006KT 10SM CLR 11/01 A2984 RMK AO2 T01100006

Get Your Daily Forecast Email!

Thanks for signing up!

Be on the lookout for a verification email in your inbox.

You'll start receiving the daily forecast at 8 AM.

×

10-Day Weather Forecast

Almanac

Astronomy

Feb. 21, 2017 Rise Set
Actual Time
Civil Twilight
Nautical Twilight
Astronomical Twilight
Moon
Length of Visible Light
Length of Day
Tomorrow will be .
, % of the Moon is Illuminated

Today's Extremes

State Highs State Lows

Community

WunderPhotos

Upload Photos

1,962,540 photos uploaded!

WunderBlog® & News

Nearby

Air Quality

  Air Quality AQ Index Pollutant
Not available.

Snow Depth

Station Depth Elevation

Earthquake Activity

City Distance Mag. Time & Date
Minimum magnitude displayed is 2.5.

Coastal Water Temperatures

Place Temperature

Stations

Nearby Weather Stations

Station Location Temp. Windchill Dew Point Humidity Wind Precip. Elev Updated Type
                   

Watches & Warnings

Hydrologic Statement
Issued: 2:32 PM CST Feb. 21, 2017 – National Weather Service

Forecast information for
Baraboo river near Baraboo.
* At 1:15 PM Tuesday the stage was 12.4 feet.
* Flood stage is 16.0 feet.
* Forecast... the river will rise to near 15.8 feet Friday early
afternoon.
* Impact... at 16.0 feet... the effects of flooding at this level are
confined mainly to agricultural land.


Lat... Lon 4342 8965 4351 8967 4353 8964 4354 8957
      4349 8945 4347 8957